sensor_id;sensor_type;location;lat;lon;timestamp;temperature;humidity
70986;DHT22;58645;43.068;25.610;2023-12-20T00:01:22;1.60;99.90
70986;DHT22;58645;43.068;25.610;2023-12-20T00:03:48;1.50;99.90
70986;DHT22;58645;43.068;25.610;2023-12-20T00:06:14;1.50;99.90
70986;DHT22;58645;43.068;25.610;2023-12-20T00:08:39;1.40;99.90
70986;DHT22;58645;43.068;25.610;2023-12-20T00:11:05;1.40;99.90
70986;DHT22;58645;43.068;25.610;2023-12-20T00:13:31;1.40;99.90
70986;DHT22;58645;43.068;25.610;2023-12-20T00:15:56;1.40;99.90
70986;DHT22;58645;43.068;25.610;2023-12-20T00:18:23;1.40;99.90
70986;DHT22;58645;43.068;25.610;2023-12-20T00:20:49;1.40;99.90
70986;DHT22;58645;43.068;25.610;2023-12-20T00:23:14;1.50;99.90
70986;DHT22;58645;43.068;25.610;2023-12-20T00:25:40;1.50;99.90
70986;DHT22;58645;43.068;25.610;2023-12-20T00:28:06;1.40;99.90
70986;DHT22;58645;43.068;25.610;2023-12-20T00:30:32;1.40;99.90
70986;DHT22;58645;43.068;25.610;2023-12-20T00:32:57;1.30;99.90
70986;DHT22;58645;43.068;25.610;2023-12-20T00:35:23;1.30;99.90
70986;DHT22;58645;43.068;25.610;2023-12-20T00:37:49;1.30;99.90
70986;DHT22;58645;43.068;25.610;2023-12-20T00:40:15;1.20;99.90
70986;DHT22;58645;43.068;25.610;2023-12-20T00:42:41;1.20;99.90
70986;DHT22;58645;43.068;25.610;2023-12-20T00:45:07;1.10;99.90
70986;DHT22;58645;43.068;25.610;2023-12-20T00:47:33;1.10;99.90
70986;DHT22;58645;43.068;25.610;2023-12-20T00:49:59;1.00;99.90
70986;DHT22;58645;43.068;25.610;2023-12-20T00:52:25;1.00;99.90
70986;DHT22;58645;43.068;25.610;2023-12-20T00:54:51;1.00;99.90
70986;DHT22;58645;43.068;25.610;2023-12-20T00:57:17;1.00;99.90
70986;DHT22;58645;43.068;25.610;2023-12-20T00:59:43;1.00;99.90
70986;DHT22;58645;43.068;25.610;2023-12-20T01:02:08;1.00;99.90
70986;DHT22;58645;43.068;25.610;2023-12-20T01:04:35;1.00;99.90
70986;DHT22;58645;43.068;25.610;2023-12-20T01:07:01;1.00;99.90
70986;DHT22;58645;43.068;25.610;2023-12-20T01:09:27;1.00;99.90
70986;DHT22;58645;43.068;25.610;2023-12-20T01:11:53;1.00;99.90
70986;DHT22;58645;43.068;25.610;2023-12-20T01:14:19;1.00;99.90
70986;DHT22;58645;43.068;25.610;2023-12-20T01:16:45;1.10;99.90
70986;DHT22;58645;43.068;25.610;2023-12-20T01:19:11;1.00;99.90
70986;DHT22;58645;43.068;25.610;2023-12-20T01:21:36;1.00;99.90
70986;DHT22;58645;43.068;25.610;2023-12-20T01:24:03;1.00;99.90
70986;DHT22;58645;43.068;25.610;2023-12-20T01:26:29;1.00;99.90
70986;DHT22;58645;43.068;25.610;2023-12-20T01:28:54;1.00;99.90
70986;DHT22;58645;43.068;25.610;2023-12-20T01:31:20;1.00;99.90
70986;DHT22;58645;43.068;25.610;2023-12-20T01:33:46;0.90;99.90
70986;DHT22;58645;43.068;25.610;2023-12-20T01:36:12;1.00;99.90
70986;DHT22;58645;43.068;25.610;2023-12-20T01:38:37;0.90;99.90
70986;DHT22;58645;43.068;25.610;2023-12-20T01:41:03;0.90;99.90
70986;DHT22;58645;43.068;25.610;2023-12-20T01:43:30;0.90;99.90
70986;DHT22;58645;43.068;25.610;2023-12-20T01:45:57;0.90;99.90
70986;DHT22;58645;43.068;25.610;2023-12-20T01:48:24;0.90;99.90
70986;DHT22;58645;43.068;25.610;2023-12-20T01:50:50;0.90;99.90
70986;DHT22;58645;43.068;25.610;2023-12-20T01:53:17;0.90;99.90
70986;DHT22;58645;43.068;25.610;2023-12-20T01:55:44;0.80;99.90
70986;DHT22;58645;43.068;25.610;2023-12-20T01:58:11;0.80;99.90
70986;DHT22;58645;43.068;25.610;2023-12-20T02:00:38;0.80;99.90
70986;DHT22;58645;43.068;25.610;2023-12-20T02:03:04;0.80;99.90
70986;DHT22;58645;43.068;25.610;2023-12-20T02:05:31;0.80;99.90
70986;DHT22;58645;43.068;25.610;2023-12-20T02:07:57;0.80;99.90
70986;DHT22;58645;43.068;25.610;2023-12-20T02:10:23;0.80;99.90
70986;DHT22;58645;43.068;25.610;2023-12-20T02:12:49;0.80;99.90
70986;DHT22;58645;43.068;25.610;2023-12-20T02:15:15;0.90;99.90
70986;DHT22;58645;43.068;25.610;2023-12-20T02:17:41;0.90;99.90
70986;DHT22;58645;43.068;25.610;2023-12-20T02:20:07;0.90;99.90
70986;DHT22;58645;43.068;25.610;2023-12-20T02:22:33;0.90;99.90
70986;DHT22;58645;43.068;25.610;2023-12-20T02:24:58;0.90;99.90
70986;DHT22;58645;43.068;25.610;2023-12-20T02:27:24;0.90;99.90
70986;DHT22;58645;43.068;25.610;2023-12-20T02:29:50;0.90;99.90
70986;DHT22;58645;43.068;25.610;2023-12-20T02:32:17;0.90;99.90
70986;DHT22;58645;43.068;25.610;2023-12-20T02:34:43;0.90;99.90
70986;DHT22;58645;43.068;25.610;2023-12-20T02:37:09;0.80;99.90
70986;DHT22;58645;43.068;25.610;2023-12-20T02:39:35;0.80;99.90
70986;DHT22;58645;43.068;25.610;2023-12-20T02:42:01;0.70;99.90
70986;DHT22;58645;43.068;25.610;2023-12-20T02:44:26;0.60;99.90
70986;DHT22;58645;43.068;25.610;2023-12-20T02:46:52;0.50;99.90
70986;DHT22;58645;43.068;25.610;2023-12-20T02:49:18;0.50;99.90
70986;DHT22;58645;43.068;25.610;2023-12-20T02:51:43;0.60;99.90
70986;DHT22;58645;43.068;25.610;2023-12-20T02:54:09;0.40;99.90
70986;DHT22;58645;43.068;25.610;2023-12-20T02:56:35;0.40;99.90
70986;DHT22;58645;43.068;25.610;2023-12-20T02:59:01;0.40;99.90
70986;DHT22;58645;43.068;25.610;2023-12-20T03:01:28;0.40;99.90
70986;DHT22;58645;43.068;25.610;2023-12-20T03:03:54;0.40;99.90
70986;DHT22;58645;43.068;25.610;2023-12-20T03:06:20;0.50;99.90
70986;DHT22;58645;43.068;25.610;2023-12-20T03:08:46;0.50;99.90
70986;DHT22;58645;43.068;25.610;2023-12-20T03:11:12;0.40;99.90
70986;DHT22;58645;43.068;25.610;2023-12-20T03:13:37;0.40;99.90
70986;DHT22;58645;43.068;25.610;2023-12-20T03:16:13;0.50;99.90
70986;DHT22;58645;43.068;25.610;2023-12-20T03:18:39;0.50;99.90
70986;DHT22;58645;43.068;25.610;2023-12-20T03:21:05;0.50;99.90
70986;DHT22;58645;43.068;25.610;2023-12-20T03:23:31;0.50;99.90
70986;DHT22;58645;43.068;25.610;2023-12-20T03:25:59;0.40;99.90
70986;DHT22;58645;43.068;25.610;2023-12-20T03:28:26;0.40;99.90
70986;DHT22;58645;43.068;25.610;2023-12-20T03:30:52;0.40;99.90
70986;DHT22;58645;43.068;25.610;2023-12-20T03:33:18;0.40;99.90
70986;DHT22;58645;43.068;25.610;2023-12-20T03:35:44;0.40;99.90
70986;DHT22;58645;43.068;25.610;2023-12-20T03:38:09;0.50;99.90
70986;DHT22;58645;43.068;25.610;2023-12-20T03:40:35;0.50;99.90
70986;DHT22;58645;43.068;25.610;2023-12-20T03:43:01;0.50;99.90
70986;DHT22;58645;43.068;25.610;2023-12-20T03:45:27;0.50;99.90
70986;DHT22;58645;43.068;25.610;2023-12-20T03:47:52;0.50;99.90
70986;DHT22;58645;43.068;25.610;2023-12-20T03:50:26;0.50;99.90
70986;DHT22;58645;43.068;25.610;2023-12-20T03:52:52;0.40;99.90
70986;DHT22;58645;43.068;25.610;2023-12-20T03:55:18;0.50;99.90
70986;DHT22;58645;43.068;25.610;2023-12-20T03:57:43;0.40;99.90
70986;DHT22;58645;43.068;25.610;2023-12-20T04:00:10;0.40;99.90
70986;DHT22;58645;43.068;25.610;2023-12-20T04:02:40;0.40;99.90
70986;DHT22;58645;43.068;25.610;2023-12-20T04:05:06;0.40;99.90
70986;DHT22;58645;43.068;25.610;2023-12-20T04:07:33;0.30;99.90
70986;DHT22;58645;43.068;25.610;2023-12-20T04:09:59;0.30;99.90
70986;DHT22;58645;43.068;25.610;2023-12-20T04:12:25;0.30;99.90
70986;DHT22;58645;43.068;25.610;2023-12-20T04:14:51;0.30;99.90
70986;DHT22;58645;43.068;25.610;2023-12-20T04:17:17;0.30;99.90
70986;DHT22;58645;43.068;25.610;2023-12-20T04:19:43;0.30;99.90
70986;DHT22;58645;43.068;25.610;2023-12-20T04:22:09;0.30;99.90
70986;DHT22;58645;43.068;25.610;2023-12-20T04:24:35;0.20;99.90
70986;DHT22;58645;43.068;25.610;2023-12-20T04:27:01;0.30;99.90
70986;DHT22;58645;43.068;25.610;2023-12-20T04:29:27;0.20;99.90
70986;DHT22;58645;43.068;25.610;2023-12-20T04:31:52;0.20;99.90
70986;DHT22;58645;43.068;25.610;2023-12-20T04:34:18;0.20;99.90
70986;DHT22;58645;43.068;25.610;2023-12-20T04:36:44;0.20;99.90
70986;DHT22;58645;43.068;25.610;2023-12-20T04:39:12;0.20;99.90
70986;DHT22;58645;43.068;25.610;2023-12-20T04:41:39;0.30;99.90
70986;DHT22;58645;43.068;25.610;2023-12-20T04:44:05;0.20;99.90
70986;DHT22;58645;43.068;25.610;2023-12-20T04:46:31;0.10;99.90
70986;DHT22;58645;43.068;25.610;2023-12-20T04:48:57;0.20;99.90
70986;DHT22;58645;43.068;25.610;2023-12-20T04:51:23;0.20;99.90
70986;DHT22;58645;43.068;25.610;2023-12-20T04:53:49;0.20;99.90
70986;DHT22;58645;43.068;25.610;2023-12-20T04:56:14;0.20;99.90
70986;DHT22;58645;43.068;25.610;2023-12-20T04:58:40;0.20;99.90
70986;DHT22;58645;43.068;25.610;2023-12-20T05:01:06;0.10;99.90
70986;DHT22;58645;43.068;25.610;2023-12-20T05:03:32;0.10;99.90
70986;DHT22;58645;43.068;25.610;2023-12-20T05:05:58;0.00;99.90
70986;DHT22;58645;43.068;25.610;2023-12-20T05:08:24;0.00;99.90
70986;DHT22;58645;43.068;25.610;2023-12-20T05:10:54;0.00;99.90
70986;DHT22;58645;43.068;25.610;2023-12-20T05:13:20;0.00;99.90
70986;DHT22;58645;43.068;25.610;2023-12-20T05:15:46;0.10;99.90
70986;DHT22;58645;43.068;25.610;2023-12-20T05:18:12;0.10;99.90
70986;DHT22;58645;43.068;25.610;2023-12-20T05:20:38;0.10;99.90
70986;DHT22;58645;43.068;25.610;2023-12-20T05:23:04;0.50;99.90
70986;DHT22;58645;43.068;25.610;2023-12-20T05:25:30;0.20;99.90
70986;DHT22;58645;43.068;25.610;2023-12-20T05:27:56;0.20;99.90
70986;DHT22;58645;43.068;25.610;2023-12-20T05:30:22;0.20;99.90
70986;DHT22;58645;43.068;25.610;2023-12-20T05:32:48;0.20;99.90
70986;DHT22;58645;43.068;25.610;2023-12-20T05:35:14;0.20;99.90
70986;DHT22;58645;43.068;25.610;2023-12-20T05:37:41;0.30;99.90
70986;DHT22;58645;43.068;25.610;2023-12-20T05:40:07;0.30;99.90
70986;DHT22;58645;43.068;25.610;2023-12-20T05:42:36;0.30;99.90
70986;DHT22;58645;43.068;25.610;2023-12-20T05:45:06;0.30;99.90
70986;DHT22;58645;43.068;25.610;2023-12-20T05:47:32;0.40;99.90
70986;DHT22;58645;43.068;25.610;2023-12-20T05:49:58;0.40;99.90
70986;DHT22;58645;43.068;25.610;2023-12-20T05:52:24;0.50;99.90
70986;DHT22;58645;43.068;25.610;2023-12-20T05:54:50;0.50;99.90
70986;DHT22;58645;43.068;25.610;2023-12-20T05:57:16;0.60;99.90
70986;DHT22;58645;43.068;25.610;2023-12-20T05:59:42;0.70;99.90
70986;DHT22;58645;43.068;25.610;2023-12-20T06:02:07;0.80;99.90
70986;DHT22;58645;43.068;25.610;2023-12-20T06:04:33;1.00;99.90
70986;DHT22;58645;43.068;25.610;2023-12-20T06:06:59;1.10;99.90
70986;DHT22;58645;43.068;25.610;2023-12-20T06:09:27;1.20;99.90
70986;DHT22;58645;43.068;25.610;2023-12-20T06:11:53;1.30;99.90
70986;DHT22;58645;43.068;25.610;2023-12-20T06:14:18;1.80;99.90
70986;DHT22;58645;43.068;25.610;2023-12-20T06:16:45;2.60;99.90
70986;DHT22;58645;43.068;25.610;2023-12-20T06:19:11;3.70;99.90
70986;DHT22;58645;43.068;25.610;2023-12-20T06:21:37;4.70;99.90
70986;DHT22;58645;43.068;25.610;2023-12-20T06:24:03;5.70;99.90
70986;DHT22;58645;43.068;25.610;2023-12-20T06:26:29;6.10;99.90
70986;DHT22;58645;43.068;25.610;2023-12-20T06:28:55;6.40;99.90
70986;DHT22;58645;43.068;25.610;2023-12-20T06:31:20;6.90;99.90
70986;DHT22;58645;43.068;25.610;2023-12-20T06:33:46;7.10;99.90
70986;DHT22;58645;43.068;25.610;2023-12-20T06:36:13;7.80;99.90
70986;DHT22;58645;43.068;25.610;2023-12-20T06:38:39;7.80;99.90
70986;DHT22;58645;43.068;25.610;2023-12-20T06:41:07;8.10;99.70
70986;DHT22;58645;43.068;25.610;2023-12-20T06:43:33;9.10;94.20
70986;DHT22;58645;43.068;25.610;2023-12-20T06:46:00;10.20;86.60
70986;DHT22;58645;43.068;25.610;2023-12-20T06:48:26;10.90;80.50
70986;DHT22;58645;43.068;25.610;2023-12-20T06:50:53;11.40;77.20
70986;DHT22;58645;43.068;25.610;2023-12-20T06:53:18;10.90;74.50
70986;DHT22;58645;43.068;25.610;2023-12-20T06:55:44;10.30;76.90
70986;DHT22;58645;43.068;25.610;2023-12-20T06:58:11;9.80;77.50
70986;DHT22;58645;43.068;25.610;2023-12-20T07:00:37;9.30;79.00
70986;DHT22;58645;43.068;25.610;2023-12-20T07:03:03;8.80;80.90
70986;DHT22;58645;43.068;25.610;2023-12-20T07:05:29;8.20;82.90
70986;DHT22;58645;43.068;25.610;2023-12-20T07:07:55;7.60;85.50
70986;DHT22;58645;43.068;25.610;2023-12-20T07:10:21;7.40;88.30
70986;DHT22;58645;43.068;25.610;2023-12-20T07:12:46;7.40;89.20
70986;DHT22;58645;43.068;25.610;2023-12-20T07:15:14;7.30;89.80
70986;DHT22;58645;43.068;25.610;2023-12-20T07:17:43;7.20;90.40
70986;DHT22;58645;43.068;25.610;2023-12-20T07:20:09;7.10;92.40
70986;DHT22;58645;43.068;25.610;2023-12-20T07:22:36;6.90;95.30
70986;DHT22;58645;43.068;25.610;2023-12-20T07:25:02;6.80;96.00
70986;DHT22;58645;43.068;25.610;2023-12-20T07:27:29;6.70;95.90
70986;DHT22;58645;43.068;25.610;2023-12-20T07:29:55;6.70;97.20
70986;DHT22;58645;43.068;25.610;2023-12-20T07:32:21;6.70;97.70
70986;DHT22;58645;43.068;25.610;2023-12-20T07:34:47;6.80;97.90
70986;DHT22;58645;43.068;25.610;2023-12-20T07:37:13;6.80;98.90
70986;DHT22;58645;43.068;25.610;2023-12-20T07:39:40;6.80;98.00
70986;DHT22;58645;43.068;25.610;2023-12-20T07:42:07;7.10;97.80
70986;DHT22;58645;43.068;25.610;2023-12-20T07:44:33;7.50;94.50
70986;DHT22;58645;43.068;25.610;2023-12-20T07:46:59;7.90;91.30
70986;DHT22;58645;43.068;25.610;2023-12-20T07:49:25;7.50;91.20
70986;DHT22;58645;43.068;25.610;2023-12-20T07:51:50;7.40;92.50
70986;DHT22;58645;43.068;25.610;2023-12-20T07:54:16;7.30;93.50
70986;DHT22;58645;43.068;25.610;2023-12-20T07:56:45;7.20;94.30
70986;DHT22;58645;43.068;25.610;2023-12-20T07:59:17;7.20;93.50
70986;DHT22;58645;43.068;25.610;2023-12-20T08:01:44;7.60;93.60
70986;DHT22;58645;43.068;25.610;2023-12-20T08:04:10;8.60;87.00
70986;DHT22;58645;43.068;25.610;2023-12-20T08:06:36;10.40;81.80
70986;DHT22;58645;43.068;25.610;2023-12-20T08:09:03;11.00;75.80
70986;DHT22;58645;43.068;25.610;2023-12-20T08:11:29;10.40;77.50
70986;DHT22;58645;43.068;25.610;2023-12-20T08:13:55;10.00;79.20
70986;DHT22;58645;43.068;25.610;2023-12-20T08:16:21;10.50;80.60
70986;DHT22;58645;43.068;25.610;2023-12-20T08:18:47;12.10;74.70
70986;DHT22;58645;43.068;25.610;2023-12-20T08:21:13;13.60;68.40
70986;DHT22;58645;43.068;25.610;2023-12-20T08:23:42;14.50;63.20
70986;DHT22;58645;43.068;25.610;2023-12-20T08:26:08;14.40;60.90
70986;DHT22;58645;43.068;25.610;2023-12-20T08:28:34;14.40;61.50
70986;DHT22;58645;43.068;25.610;2023-12-20T08:31:02;14.50;61.80
70986;DHT22;58645;43.068;25.610;2023-12-20T08:33:31;15.20;59.80
70986;DHT22;58645;43.068;25.610;2023-12-20T08:36:15;14.50;59.30
70986;DHT22;58645;43.068;25.610;2023-12-20T08:39:29;13.60;62.20
70986;DHT22;58645;43.068;25.610;2023-12-20T08:44:53;11.70;67.80
70986;DHT22;58645;43.068;25.610;2023-12-20T08:47:19;10.90;70.70
70986;DHT22;58645;43.068;25.610;2023-12-20T08:49:45;10.70;72.70
70986;DHT22;58645;43.068;25.610;2023-12-20T08:52:11;10.60;73.90
70986;DHT22;58645;43.068;25.610;2023-12-20T08:54:41;10.70;73.60
70986;DHT22;58645;43.068;25.610;2023-12-20T08:57:06;10.80;73.20
70986;DHT22;58645;43.068;25.610;2023-12-20T08:59:32;11.60;71.20
70986;DHT22;58645;43.068;25.610;2023-12-20T09:01:58;12.40;67.50
70986;DHT22;58645;43.068;25.610;2023-12-20T09:04:24;13.10;67.20
70986;DHT22;58645;43.068;25.610;2023-12-20T09:06:53;14.00;64.10
70986;DHT22;58645;43.068;25.610;2023-12-20T09:09:19;14.70;62.90
70986;DHT22;58645;43.068;25.610;2023-12-20T09:11:45;15.60;60.40
70986;DHT22;58645;43.068;25.610;2023-12-20T09:14:50;16.00;56.80
70986;DHT22;58645;43.068;25.610;2023-12-20T09:17:39;16.50;56.00
70986;DHT22;58645;43.068;25.610;2023-12-20T09:20:07;17.80;53.60
70986;DHT22;58645;43.068;25.610;2023-12-20T09:22:37;17.90;51.80
70986;DHT22;58645;43.068;25.610;2023-12-20T09:25:11;18.00;51.30
70986;DHT22;58645;43.068;25.610;2023-12-20T09:27:41;18.80;50.90
70986;DHT22;58645;43.068;25.610;2023-12-20T09:30:07;19.60;49.00
70986;DHT22;58645;43.068;25.610;2023-12-20T09:32:33;20.40;46.80
70986;DHT22;58645;43.068;25.610;2023-12-20T09:35:06;21.00;46.10
70986;DHT22;58645;43.068;25.610;2023-12-20T09:37:33;21.70;44.00
70986;DHT22;58645;43.068;25.610;2023-12-20T09:39:59;22.70;42.00
70986;DHT22;58645;43.068;25.610;2023-12-20T09:42:33;23.20;41.20
70986;DHT22;58645;43.068;25.610;2023-12-20T09:45:04;23.40;40.10
70986;DHT22;58645;43.068;25.610;2023-12-20T09:47:33;23.60;39.60
70986;DHT22;58645;43.068;25.610;2023-12-20T09:49:59;23.80;39.70
70986;DHT22;58645;43.068;25.610;2023-12-20T09:52:25;24.20;39.40
70986;DHT22;58645;43.068;25.610;2023-12-20T09:55:03;24.40;39.30
70986;DHT22;58645;43.068;25.610;2023-12-20T09:57:32;24.60;37.70
70986;DHT22;58645;43.068;25.610;2023-12-20T09:59:59;24.70;37.60
70986;DHT22;58645;43.068;25.610;2023-12-20T10:02:25;24.70;36.90
70986;DHT22;58645;43.068;25.610;2023-12-20T10:04:53;24.70;36.60
70986;DHT22;58645;43.068;25.610;2023-12-20T10:07:19;25.00;36.50
70986;DHT22;58645;43.068;25.610;2023-12-20T10:09:47;25.30;35.30
70986;DHT22;58645;43.068;25.610;2023-12-20T10:12:18;25.40;35.50
70986;DHT22;58645;43.068;25.610;2023-12-20T10:14:51;25.60;35.60
70986;DHT22;58645;43.068;25.610;2023-12-20T10:17:17;25.90;33.90
70986;DHT22;58645;43.068;25.610;2023-12-20T10:19:43;26.30;33.90
70986;DHT22;58645;43.068;25.610;2023-12-20T10:22:08;26.50;32.90
70986;DHT22;58645;43.068;25.610;2023-12-20T10:24:35;26.50;33.80
70986;DHT22;58645;43.068;25.610;2023-12-20T10:27:03;26.80;32.40
70986;DHT22;58645;43.068;25.610;2023-12-20T10:29:55;27.00;32.20
70986;DHT22;58645;43.068;25.610;2023-12-20T10:32:24;27.40;31.50
70986;DHT22;58645;43.068;25.610;2023-12-20T10:34:54;27.40;30.50
70986;DHT22;58645;43.068;25.610;2023-12-20T10:37:20;27.60;30.40
70986;DHT22;58645;43.068;25.610;2023-12-20T10:39:53;27.80;30.30
70986;DHT22;58645;43.068;25.610;2023-12-20T10:42:26;27.90;30.10
70986;DHT22;58645;43.068;25.610;2023-12-20T10:44:52;27.90;30.10
70986;DHT22;58645;43.068;25.610;2023-12-20T10:47:19;28.00;30.60
70986;DHT22;58645;43.068;25.610;2023-12-20T10:49:46;27.90;30.00
70986;DHT22;58645;43.068;25.610;2023-12-20T10:52:13;28.00;29.30
70986;DHT22;58645;43.068;25.610;2023-12-20T10:54:41;28.50;28.90
70986;DHT22;58645;43.068;25.610;2023-12-20T10:57:08;28.90;28.30
70986;DHT22;58645;43.068;25.610;2023-12-20T10:59:36;28.90;28.00
70986;DHT22;58645;43.068;25.610;2023-12-20T11:02:05;28.90;27.50
70986;DHT22;58645;43.068;25.610;2023-12-20T11:04:50;28.90;27.70
70986;DHT22;58645;43.068;25.610;2023-12-20T11:07:36;29.10;27.40
70986;DHT22;58645;43.068;25.610;2023-12-20T11:10:29;29.10;27.90
70986;DHT22;58645;43.068;25.610;2023-12-20T11:15:31;28.90;28.70
70986;DHT22;58645;43.068;25.610;2023-12-20T11:17:57;29.10;27.30
70986;DHT22;58645;43.068;25.610;2023-12-20T11:20:35;29.30;28.10
70986;DHT22;58645;43.068;25.610;2023-12-20T11:23:02;29.30;28.20
70986;DHT22;58645;43.068;25.610;2023-12-20T11:25:28;29.60;27.10
70986;DHT22;58645;43.068;25.610;2023-12-20T11:28:10;29.80;26.70
70986;DHT22;58645;43.068;25.610;2023-12-20T11:30:47;29.10;30.20
70986;DHT22;58645;43.068;25.610;2023-12-20T11:33:14;28.70;28.20
70986;DHT22;58645;43.068;25.610;2023-12-20T11:35:41;28.40;28.10
70986;DHT22;58645;43.068;25.610;2023-12-20T11:38:10;27.90;30.00
70986;DHT22;58645;43.068;25.610;2023-12-20T11:40:36;27.00;32.00
70986;DHT22;58645;43.068;25.610;2023-12-20T11:43:03;26.00;34.20
70986;DHT22;58645;43.068;25.610;2023-12-20T11:45:34;25.40;32.10
70986;DHT22;58645;43.068;25.610;2023-12-20T11:48:02;24.90;33.30
70986;DHT22;58645;43.068;25.610;2023-12-20T11:50:31;24.70;33.30
70986;DHT22;58645;43.068;25.610;2023-12-20T11:53:00;23.90;34.30
70986;DHT22;58645;43.068;25.610;2023-12-20T11:55:29;23.40;35.50
70986;DHT22;58645;43.068;25.610;2023-12-20T11:57:55;22.40;36.70
70986;DHT22;58645;43.068;25.610;2023-12-20T12:00:21;21.80;39.40
70986;DHT22;58645;43.068;25.610;2023-12-20T12:02:57;21.20;40.20
70986;DHT22;58645;43.068;25.610;2023-12-20T12:05:23;20.80;40.30
70986;DHT22;58645;43.068;25.610;2023-12-20T12:07:49;20.50;40.50
70986;DHT22;58645;43.068;25.610;2023-12-20T12:10:14;20.30;41.00
70986;DHT22;58645;43.068;25.610;2023-12-20T12:12:40;20.00;42.50
70986;DHT22;58645;43.068;25.610;2023-12-20T12:15:06;19.80;42.80
70986;DHT22;58645;43.068;25.610;2023-12-20T12:17:33;19.40;44.60
70986;DHT22;58645;43.068;25.610;2023-12-20T12:20:03;19.20;46.50
70986;DHT22;58645;43.068;25.610;2023-12-20T12:22:30;19.00;47.50
70986;DHT22;58645;43.068;25.610;2023-12-20T12:24:59;18.90;48.50
70986;DHT22;58645;43.068;25.610;2023-12-20T12:27:27;18.80;47.30
70986;DHT22;58645;43.068;25.610;2023-12-20T12:30:04;18.70;47.90
70986;DHT22;58645;43.068;25.610;2023-12-20T12:32:32;18.50;48.10
70986;DHT22;58645;43.068;25.610;2023-12-20T12:34:58;18.20;48.40
70986;DHT22;58645;43.068;25.610;2023-12-20T12:37:24;18.10;49.10
70986;DHT22;58645;43.068;25.610;2023-12-20T12:39:53;17.80;49.90
70986;DHT22;58645;43.068;25.610;2023-12-20T12:42:19;17.50;50.30
70986;DHT22;58645;43.068;25.610;2023-12-20T12:44:46;17.10;51.20
70986;DHT22;58645;43.068;25.610;2023-12-20T12:47:11;17.00;51.20
70986;DHT22;58645;43.068;25.610;2023-12-20T12:49:37;16.90;51.10
70986;DHT22;58645;43.068;25.610;2023-12-20T12:52:05;16.70;52.10
70986;DHT22;58645;43.068;25.610;2023-12-20T12:54:31;16.50;52.80
70986;DHT22;58645;43.068;25.610;2023-12-20T12:56:57;16.20;54.00
70986;DHT22;58645;43.068;25.610;2023-12-20T12:59:23;16.00;54.40
70986;DHT22;58645;43.068;25.610;2023-12-20T13:01:49;15.70;55.10
70986;DHT22;58645;43.068;25.610;2023-12-20T13:04:15;15.50;55.50
70986;DHT22;58645;43.068;25.610;2023-12-20T13:06:41;15.30;55.50
70986;DHT22;58645;43.068;25.610;2023-12-20T13:09:07;15.20;55.80
70986;DHT22;58645;43.068;25.610;2023-12-20T13:11:35;15.00;56.00
70986;DHT22;58645;43.068;25.610;2023-12-20T13:14:01;15.00;56.30
70986;DHT22;58645;43.068;25.610;2023-12-20T13:16:27;14.90;56.30
70986;DHT22;58645;43.068;25.610;2023-12-20T13:18:52;14.90;57.40
70986;DHT22;58645;43.068;25.610;2023-12-20T13:21:18;14.80;58.10
70986;DHT22;58645;43.068;25.610;2023-12-20T13:23:44;14.80;57.80
70986;DHT22;58645;43.068;25.610;2023-12-20T13:26:10;14.80;58.20
70986;DHT22;58645;43.068;25.610;2023-12-20T13:28:35;14.70;59.60
70986;DHT22;58645;43.068;25.610;2023-12-20T13:31:01;14.70;61.00
70986;DHT22;58645;43.068;25.610;2023-12-20T13:33:27;14.60;61.10
70986;DHT22;58645;43.068;25.610;2023-12-20T13:35:53;14.60;60.80
70986;DHT22;58645;43.068;25.610;2023-12-20T13:38:19;14.50;61.30
70986;DHT22;58645;43.068;25.610;2023-12-20T13:40:44;14.40;60.70
70986;DHT22;58645;43.068;25.610;2023-12-20T13:43:10;14.30;61.80
70986;DHT22;58645;43.068;25.610;2023-12-20T13:45:38;14.20;62.10
70986;DHT22;58645;43.068;25.610;2023-12-20T13:48:04;14.10;62.60
70986;DHT22;58645;43.068;25.610;2023-12-20T13:50:30;14.00;62.60
70986;DHT22;58645;43.068;25.610;2023-12-20T13:52:55;13.90;63.00
70986;DHT22;58645;43.068;25.610;2023-12-20T13:55:22;13.80;63.80
70986;DHT22;58645;43.068;25.610;2023-12-20T13:57:51;13.60;64.30
70986;DHT22;58645;43.068;25.610;2023-12-20T14:00:17;13.50;63.80
70986;DHT22;58645;43.068;25.610;2023-12-20T14:02:42;13.30;64.10
70986;DHT22;58645;43.068;25.610;2023-12-20T14:05:09;13.20;64.90
70986;DHT22;58645;43.068;25.610;2023-12-20T14:07:36;13.20;64.20
70986;DHT22;58645;43.068;25.610;2023-12-20T14:10:02;13.10;64.90
70986;DHT22;58645;43.068;25.610;2023-12-20T14:12:29;13.00;66.00
70986;DHT22;58645;43.068;25.610;2023-12-20T14:14:55;12.90;65.40
70986;DHT22;58645;43.068;25.610;2023-12-20T14:17:21;12.80;66.30
70986;DHT22;58645;43.068;25.610;2023-12-20T14:19:47;12.70;66.60
70986;DHT22;58645;43.068;25.610;2023-12-20T14:22:13;12.50;67.30
70986;DHT22;58645;43.068;25.610;2023-12-20T14:24:42;12.40;67.50
70986;DHT22;58645;43.068;25.610;2023-12-20T14:27:08;12.20;67.70
70986;DHT22;58645;43.068;25.610;2023-12-20T14:29:35;12.10;68.40
70986;DHT22;58645;43.068;25.610;2023-12-20T14:32:01;12.00;68.00
70986;DHT22;58645;43.068;25.610;2023-12-20T14:34:29;11.80;67.80
70986;DHT22;58645;43.068;25.610;2023-12-20T14:36:54;11.70;67.80
70986;DHT22;58645;43.068;25.610;2023-12-20T14:39:21;11.60;67.50
70986;DHT22;58645;43.068;25.610;2023-12-20T14:41:46;11.50;67.80
70986;DHT22;58645;43.068;25.610;2023-12-20T14:44:12;11.50;68.60
70986;DHT22;58645;43.068;25.610;2023-12-20T14:46:39;11.30;68.50
70986;DHT22;58645;43.068;25.610;2023-12-20T14:49:05;11.20;69.30
70986;DHT22;58645;43.068;25.610;2023-12-20T14:51:31;11.20;69.50
70986;DHT22;58645;43.068;25.610;2023-12-20T14:53:56;11.10;70.00
70986;DHT22;58645;43.068;25.610;2023-12-20T14:56:23;11.00;70.40
70986;DHT22;58645;43.068;25.610;2023-12-20T14:58:51;11.00;71.00
70986;DHT22;58645;43.068;25.610;2023-12-20T15:01:17;10.90;71.00
70986;DHT22;58645;43.068;25.610;2023-12-20T15:03:47;10.80;72.10
70986;DHT22;58645;43.068;25.610;2023-12-20T15:06:13;10.80;71.20
70986;DHT22;58645;43.068;25.610;2023-12-20T15:08:38;10.70;71.60
70986;DHT22;58645;43.068;25.610;2023-12-20T15:11:04;10.70;72.60
70986;DHT22;58645;43.068;25.610;2023-12-20T15:13:31;10.60;73.40
70986;DHT22;58645;43.068;25.610;2023-12-20T15:15:57;10.50;74.80
70986;DHT22;58645;43.068;25.610;2023-12-20T15:18:22;10.50;76.20
70986;DHT22;58645;43.068;25.610;2023-12-20T15:20:48;10.50;78.10
70986;DHT22;58645;43.068;25.610;2023-12-20T15:23:14;10.40;79.30
70986;DHT22;58645;43.068;25.610;2023-12-20T15:25:41;10.40;80.00
70986;DHT22;58645;43.068;25.610;2023-12-20T15:28:07;10.30;80.20